Saturday, August 18, 2018, 5:53 PM GMT
Back to Local

CYPD, Port Hawkesbury

Location: , , Canada Lat: 45.667
Local Time: 5:53 PM GMT (17:53 GMT) Lon: -61.383
Time Zone: GMT Elev: 374 ft

Show me the last for .
Show Decoded

2018-08-18 17:31 METAR CYPD 181731Z AUTO 15008KT 5SM RA BR OVC028 17/16 A2987 RMK SLP118 DENSITY
                 ALT 700FT =
2018-08-18 17:00 METAR CYPD 181700Z AUTO 15009KT 9SM -RA SCT035 BKN043 OVC060 17/16 A2988 RMK
                 SLP121 DENSITY ALT 700FT =
2018-08-18 16:39 METAR CYPD 181639Z AUTO 14007KT 6SM -RA BR FEW023 OVC036 17/16 A2989 RMK SLP124
                 DENSITY ALT 700FT =
2018-08-18 16:28 METAR CYPD 181628Z AUTO 13006KT 5SM RA BR OVC036 17/16 A2990 RMK SLP127 DENSITY
                 ALT 700FT =
2018-08-18 16:00 METAR CYPD 181600Z AUTO 14005KT 6SM RA BR BKN038 OVC046 17/16 A2991 RMK SLP131
                 DENSITY ALT 700FT =
2018-08-18 15:49 METAR CYPD 181549Z AUTO 15007KT 120V180 6SM -RA BR BKN040 OVC050 17/15 A2991 RMK
                 SLP131 DENSITY ALT 700FT =
2018-08-18 15:39 METAR CYPD 181539Z AUTO 16005KT 5SM RA SCT042 OVC050 18/15 A2991 RMK SLP133
                 DENSITY ALT 700FT =
2018-08-18 15:25 METAR CYPD 181525Z AUTO 19005KT 9SM -RA OVC050 19/15 A2992 RMK SLP133 DENSITY
                 ALT 900FT =
2018-08-18 15:00 METAR CYPD 181500Z AUTO 15006KT 9SM FEW025 OVC050 20/15 A2991 RMK SLP132 DENSITY
                 ALT 1000FT =
2018-08-18 14:00 METAR CYPD 181400Z AUTO 17008KT 9SM BKN055 OVC070 20/15 A2993 RMK SLP137 DENSITY
                 ALT 1000FT =
2018-08-18 13:00 METAR CYPD 181300Z AUTO 18006KT 120V200 9SM BKN060 OVC084 19/15 A2995 RMK SLP145
                 DENSITY ALT 900FT =
2018-08-18 12:00 METAR CYPD 181200Z AUTO 14004KT 9SM SCT065 BKN083 BKN150 18/13 A2997 RMK SLP150
                 DENSITY ALT 700FT =
2018-08-18 11:00 METAR CYPD 181100Z AUTO 13004KT 100V180 9SM FEW085 BKN140 BKN240 17/12 A2997 RMK
                 SLP151 DENSITY ALT 600FT =
2018-08-18 10:00 METAR CYPD 181000Z AUTO VRB02KT 9SM SCT170 OVC240 12/11 A2997 RMK SLP151 =
2018-08-18 09:00 METAR CYPD 180900Z AUTO VRB02KT 9SM FEW220 BKN240 11/10 A2998 RMK SLP153 =
2018-08-18 08:00 METAR CYPD 180800Z AUTO 12003KT 9SM SCT200 BKN220 11/11 A2999 RMK SLP157 =
2018-08-18 07:00 METAR CYPD 180700Z AUTO 09004KT 9SM BKN240 11/10 A3000 RMK SLP163 =
2018-08-18 06:00 METAR CYPD 180600Z AUTO 08004KT 9SM BKN240 08/08 A3002 RMK SLP169 =
2018-08-18 05:00 METAR CYPD 180500Z AUTO 04003KT 010V070 9SM CLR 09/08 A3003 RMK SLP173 =
2018-08-18 04:00 METAR CYPD 180400Z AUTO 00000KT 9SM CLR 08/08 A3003 RMK SLP172 =
2018-08-18 03:00 METAR CYPD 180300Z AUTO 02004KT 9SM CLR 09/08 A3003 RMK SLP173 =
2018-08-18 02:00 METAR CYPD 180200Z AUTO 05002KT 9SM CLR 09/09 A3005 RMK SLP178 =
2018-08-18 01:00 METAR CYPD 180100Z AUTO 04004KT 9SM CLR 12/10 A3006 RMK SLP181 =
2018-08-18 00:00 METAR CYPD 180000Z AUTO 34003KT 9SM CLR 13/10 A3005 RMK SLP180 =
2018-08-17 23:00 METAR CYPD 172300Z AUTO 30004KT 9SM CLR 16/11 A3005 RMK SLP177 =
2018-08-17 22:00 METAR CYPD 172200Z AUTO 29006KT 9SM CLR 18/11 A3005 RMK SLP177 DENSITY ALT 600FT
                 =
2018-08-17 21:00 METAR CYPD 172100Z AUTO 31009KT 9SM CLR 19/12 A3004 RMK SLP175 DENSITY ALT 800FT
                 =
2018-08-17 20:00 METAR CYPD 172000Z AUTO 30009G16KT 280V340 9SM CLR 20/11 A3004 RMK SLP174
                 DENSITY ALT 800FT =
2018-08-17 19:00 METAR CYPD 171900Z AUTO 29011G17KT 9SM CLR 20/11 A3004 RMK SLP175 DENSITY ALT
                 800FT =
2018-08-17 18:00 METAR CYPD 171800Z AUTO 29014G22KT 9SM SCT039 20/11 A3004 RMK SLP176 DENSITY ALT
                 900FT =

Support USWX by starting your Amazon purchase here.